Portada
METAR-TAF:

METAR-TAF

Aeroports :

Niamey, Níger

Aeroport Internacional Diori Hamani

latitud: 13-29N, longitud: 002-10E, altitud: 223 m

Observació

L'informe es va fer fa 1 hora i 8 minuts, a les 19:00 UTC
Vent 5 kt del Nord-Est
Temperatura 37°C
Humitat 6%
Pressió 1007 hPa
Visibilitat: 7000 m

METAR: DRRN 201900Z 05005KT 7000 NSC 37/M06 Q1007 NOSIG

Hora: 21:08 (20:08 UTC)

Pronòstic

L'informe es va fer fa 3 hores i 8 minuts, a les 17:00 UTC
Pronòstic vàlid del 20 a les 18 UTC al 21 a les 24 UTC
Vent 6 kt del Nord-Est
Visibilitat: 8000 m
Temporalment
l' 20 a les 18 UTC al 20 a les 21 UTC
Visibilitat: 4000 m
Pols estès
Temporalment
l' 21 a les 06 UTC al 21 a les 08 UTC
Visibilitat: 4000 m
Pols estès
Temporalment
l' 21 a les 08 UTC al 21 a les 12 UTC
Vent 16 kt del Nord-Est
Visibilitat: 3500 m
torb alta de pols

TAF: DRRN 201700Z 2018/2124 04006KT 8000 NSC TEMPO 2018/2021 4000 DU TEMPO 2106/2108 4000 DU TEMPO 2108/2112 04016KT 3500 BLDU

Observacions i pronòstics meteorològics de més de 4000 aeroports (METAR i TAF).

Les estacions disponibles són els punts grocs i vermells al mapa.

Posi el ratolí al punt desitjat per veure el nom de l'estació.

Feu clic per veure les observacions i els pronòstics meteorològics.

Per canviar el mapa: feu clic els botons verds amb una creu de color negre per apropar; al botó verd amb un guió per allunyar la imatge; o en les fletxes verdes per a mapes adjacents.


METAR-TAF: